Time;durP1;ratioP1;P1;durP2;ratioP2;P2;SDS_P1;SDS_P2;PMS_P1;PMS_P2;Temp;Humidity;BMP_temperature;BMP_pressure;BME280_temperature;BME280_humidity;BME280_pressure;Samples;Min_cycle;Max_cycle;Signal;HPM_P1;HPM_P2
2021/05/22 00:02:09;;;;;;;;;;;;;;;8.45;89.45;99172.39;1773781;80;20247;-87
2021/05/22 00:04:35;;;;;;;;;;;;;;;8.40;87.76;99163.81;1761441;80;20215;-86
2021/05/22 00:07:02;;;;;;;;;;;;;;;8.34;87.92;99160.87;1766417;81;20179;-89
2021/05/22 00:09:28;;;;;;;;;;;;;;;8.30;88.84;99159.20;1771964;81;20170;-89
2021/05/22 00:11:54;;;;;;;;;;;;;;;8.26;87.79;99153.66;1763894;81;20199;-88
2021/05/22 00:14:21;;;;;;;;;;;;;;;8.21;87.36;99146.38;1755147;81;20247;-88
2021/05/22 00:16:47;;;;;;;;;;;;;;;8.18;87.94;99143.41;1768178;80;20180;-90
2021/05/22 00:19:13;;;;;;;;;;;;;;;8.01;88.20;99125.50;1780061;80;20165;-90
2021/05/22 00:21:39;;;;;;;;;;;;;;;8.08;87.73;99140.09;1765314;80;20180;-90
2021/05/22 00:24:06;;;;;;;;;;;;;;;8.05;88.62;99147.88;1790318;80;20191;-87
2021/05/22 00:26:32;;;;;;;;;;;;;;;8.03;90.60;99141.03;1757333;81;20869;-85
2021/05/22 00:28:58;;;;;;;;;;;;;;;7.76;90.60;99097.38;1757662;81;20171;-87
2021/05/22 00:31:25;;;;;;;;;;;;;;;7.95;90.05;99130.77;1775714;80;20170;-88
2021/05/22 00:33:51;;;;;;;;;;;;;;;7.93;88.93;99129.94;1761634;80;20289;-91
2021/05/22 00:36:17;;;;;;;;;;;;;;;7.90;88.50;99128.26;1769787;80;20511;-88
2021/05/22 00:38:43;;;;;;;;;;;;;;;7.89;88.76;99125.23;1764467;80;20189;-89
2021/05/22 00:41:10;;;;;;;;;;;;;;;7.89;88.78;99133.00;1777618;79;20193;-89
2021/05/22 00:43:36;;;;;;;;;;;;;;;7.92;89.32;99132.13;1790347;79;20254;-89
2021/05/22 00:46:03;;;;;;;;;;;;;;;7.92;87.83;99131.68;1780422;78;20582;-90
2021/05/22 00:48:29;;;;;;;;;;;;;;;7.95;89.46;99131.63;1782144;79;20180;-86
2021/05/22 00:50:55;;;;;;;;;;;;;;;7.96;88.95;99139.82;1771387;80;20206;-87
2021/05/22 00:53:21;;;;;;;;;;;;;;;8.00;89.46;99134.17;1772362;80;20186;-88
2021/05/22 00:55:48;;;;;;;;;;;;;;;8.03;89.41;99126.78;1771938;80;20226;-89
2021/05/22 00:58:14;;;;;;;;;;;;;;;8.05;89.67;99127.17;1771696;80;20187;-88
2021/05/22 01:00:46;;;;;;;;;;;;;;;8.08;90.27;99124.55;1771759;80;20163;-90
2021/05/22 01:03:40;;;;;;;;;;;;;;;8.11;90.00;99122.34;1733234;79;20202;-89
2021/05/22 01:06:25;;;;;;;;;;;;;;;8.12;88.87;99119.74;1706527;81;20207;-90
2021/05/22 01:08:54;;;;;;;;;;;;;;;8.14;87.65;99126.20;1693297;81;20150;-89
2021/05/22 01:11:22;;;;;;;;;;;;;;;8.15;88.89;99127.45;1691216;82;20223;-92
2021/05/22 01:13:55;;;;;;;;;;;;;;;8.14;87.66;99119.28;1683382;82;20630;-87
2021/05/22 01:16:21;;;;;;;;;;;;;;;8.15;86.34;99116.24;1757029;80;20210;-89
2021/05/22 01:18:48;;;;;;;;;;;;;;;8.13;85.78;99117.55;1730443;82;20224;-88
2021/05/22 01:21:16;;;;;;;;;;;;;;;8.14;86.79;99121.88;1760186;81;20197;-89
2021/05/22 01:23:51;;;;;;;;;;;;;;;8.17;87.73;99120.96;1732559;78;20233;-85
2021/05/22 01:26:17;;;;;;;;;;;;;;;8.17;87.93;99119.22;1747406;80;20168;-89
2021/05/22 01:28:44;;;;;;;;;;;;;;;8.19;87.72;99119.20;1732527;79;20183;-88
2021/05/22 01:31:11;;;;;;;;;;;;;;;8.23;87.72;99112.25;1686195;81;20179;-86
2021/05/22 01:33:38;;;;;;;;;;;;;;;8.26;87.90;99111.77;1689799;80;20119;-89
2021/05/22 01:36:06;;;;;;;;;;;;;;;8.28;87.40;99118.23;1764651;80;20220;-86
2021/05/22 01:38:32;;;;;;;;;;;;;;;8.27;86.71;99123.83;1723513;78;20215;-88
2021/05/22 01:40:58;;;;;;;;;;;;;;;8.26;87.65;99132.48;1720015;83;20212;-90
2021/05/22 01:43:25;;;;;;;;;;;;;;;8.26;87.22;99119.54;1721420;83;20207;-88
2021/05/22 01:45:52;;;;;;;;;;;;;;;8.26;87.90;99128.61;1721350;83;20591;-87
2021/05/22 01:48:21;;;;;;;;;;;;;;;8.26;88.11;99119.54;1728838;81;20222;-85
2021/05/22 01:50:49;;;;;;;;;;;;;;;8.23;86.75;99128.63;1712314;79;20200;-88
2021/05/22 01:53:17;;;;;;;;;;;;;;;8.19;87.78;99136.48;1714284;80;20232;-89
2021/05/22 01:55:46;;;;;;;;;;;;;;;8.16;87.81;99130.92;1714603;80;20193;-85
2021/05/22 01:58:13;;;;;;;;;;;;;;;8.12;87.60;99132.69;1713798;84;20183;-85
2021/05/22 02:00:43;;;;;;;;;;;;;;;8.04;87.65;99136.25;1722766;83;20183;-84
2021/05/22 02:03:35;;;;;;;;;;;;;;;7.99;87.56;99133.73;1725434;82;20157;-89
2021/05/22 02:06:05;;;;;;;;;;;;;;;7.91;88.09;99131.69;1670224;80;20233;-85
2021/05/22 02:08:34;;;;;;;;;;;;;;;7.83;87.61;99134.83;1692744;80;20228;-87
2021/05/22 02:11:01;;;;;;;;;;;;;;;7.75;87.34;99128.01;1737885;80;20207;-86
2021/05/22 02:13:27;;;;;;;;;;;;;;;7.68;88.07;99127.69;1756113;81;20205;-84
2021/05/22 02:15:59;;;;;;;;;;;;;;;7.60;88.72;99124.77;1750346;82;20690;-85
2021/05/22 02:18:27;;;;;;;;;;;;;;;7.55;88.85;99123.53;1759101;80;20817;-90
2021/05/22 02:20:56;;;;;;;;;;;;;;;7.52;89.66;99131.31;1688686;79;20853;-92
2021/05/22 02:23:23;;;;;;;;;;;;;;;7.48;89.93;99131.81;1727280;81;20599;-90
2021/05/22 02:25:51;;;;;;;;;;;;;;;7.45;89.25;99134.42;1758747;80;20208;-88
2021/05/22 02:28:17;;;;;;;;;;;;;;;7.40;90.23;99136.23;1717809;78;20161;-87
2021/05/22 02:30:44;;;;;;;;;;;;;;;7.34;91.29;99129.39;1711336;83;20529;-89
2021/05/22 02:33:11;;;;;;;;;;;;;;;7.29;91.73;99131.61;1701590;82;20156;-84
2021/05/22 02:35:41;;;;;;;;;;;;;;;7.26;91.01;99136.80;1703585;82;20192;-89
2021/05/22 02:38:17;;;;;;;;;;;;;;;7.21;90.58;99136.86;1735956;79;20158;-89
2021/05/22 02:40:45;;;;;;;;;;;;;;;7.19;91.69;99133.88;1787906;78;20167;31
2021/05/22 02:43:13;;;;;;;;;;;;;;;7.19;90.89;99134.73;1687713;83;20186;-89
2021/05/22 02:45:43;;;;;;;;;;;;;;;7.19;92.65;99130.84;1713487;80;20279;-88
2021/05/22 02:48:16;;;;;;;;;;;;;;;7.21;92.11;99130.39;1776003;79;20194;-86
2021/05/22 02:50:45;;;;;;;;;;;;;;;7.21;88.85;99134.27;1742600;78;20545;-89
2021/05/22 02:53:12;;;;;;;;;;;;;;;7.21;92.42;99125.66;1757822;76;20907;-89
2021/05/22 02:55:39;;;;;;;;;;;;;;;7.24;92.64;99136.84;1727586;78;20185;-87
2021/05/22 02:58:06;;;;;;;;;;;;;;;7.30;92.31;99134.59;1735152;80;20171;-89
2021/05/22 03:00:33;;;;;;;;;;;;;;;7.33;92.28;99135.42;1765024;80;20259;-87
2021/05/22 03:03:00;;;;;;;;;;;;;;;7.39;91.40;99139.67;1783347;79;20612;-89
2021/05/22 03:05:27;;;;;;;;;;;;;;;7.38;90.98;99130.19;1716840;77;20179;-89
2021/05/22 03:07:53;;;;;;;;;;;;;;;7.49;90.71;99141.28;1753689;81;20204;-88
2021/05/22 03:10:20;;;;;;;;;;;;;;;7.52;89.41;99140.37;1823439;78;20167;-89
2021/05/22 03:12:46;;;;;;;;;;;;;;;7.54;90.04;99148.97;1828540;78;20144;-89
2021/05/22 03:15:12;;;;;;;;;;;;;;;7.56;89.35;99153.72;1825281;78;20236;-87
2021/05/22 03:17:39;;;;;;;;;;;;;;;7.59;88.77;99151.08;1828873;78;20211;-86
2021/05/22 03:20:07;;;;;;;;;;;;;;;7.60;89.87;99147.63;1828448;78;20197;-89
2021/05/22 03:22:33;;;;;;;;;;;;;;;7.61;89.21;99149.33;1767808;78;20201;-88
2021/05/22 03:24:59;;;;;;;;;;;;;;;7.67;89.84;99155.72;1739040;81;20199;-87
2021/05/22 03:27:26;;;;;;;;;;;;;;;7.72;89.16;99153.09;1757386;80;20159;-88
2021/05/22 03:29:52;;;;;;;;;;;;;;;7.80;89.01;99152.97;1754812;81;20182;-88
2021/05/22 03:32:18;;;;;;;;;;;;;;;7.87;89.63;99151.58;1747199;80;20209;-85
2021/05/22 03:34:44;;;;;;;;;;;;;;;7.94;89.50;99145.91;1754938;81;20189;-88
2021/05/22 03:37:10;;;;;;;;;;;;;;;8.03;89.49;99143.61;1753607;80;21018;-87
2021/05/22 03:39:37;;;;;;;;;;;;;;;8.10;88.43;99142.22;1749880;81;20260;-87
2021/05/22 03:42:04;;;;;;;;;;;;;;;8.11;89.15;99145.66;1747490;81;20189;-88
2021/05/22 03:44:30;;;;;;;;;;;;;;;8.13;89.11;99146.48;1747128;81;20563;-84
2021/05/22 03:46:56;;;;;;;;;;;;;;;8.17;88.98;99155.47;1751368;81;20183;-85
2021/05/22 03:49:22;;;;;;;;;;;;;;;8.24;89.07;99152.38;1770990;81;20190;-88
2021/05/22 03:51:49;;;;;;;;;;;;;;;8.31;89.22;99153.13;1762710;80;20671;-84
2021/05/22 03:54:15;;;;;;;;;;;;;;;8.33;86.77;99150.92;1756597;80;20236;-86
2021/05/22 03:56:41;;;;;;;;;;;;;;;8.35;89.60;99155.64;1756188;80;20207;-85
2021/05/22 03:59:08;;;;;;;;;;;;;;;8.39;89.04;99154.31;1774842;80;20884;-86
2021/05/22 04:01:34;;;;;;;;;;;;;;;8.42;89.29;99156.45;1749163;81;20212;-85
2021/05/22 04:04:00;;;;;;;;;;;;;;;8.46;89.51;99152.09;1754310;80;20193;-87
2021/05/22 04:06:26;;;;;;;;;;;;;;;8.50;89.41;99150.72;1749630;80;20227;-87
2021/05/22 04:08:52;;;;;;;;;;;;;;;8.54;89.87;99156.27;1759186;80;20168;-85
2021/05/22 04:11:19;;;;;;;;;;;;;;;8.57;89.30;99147.58;1765206;80;20200;-86
2021/05/22 04:13:45;;;;;;;;;;;;;;;8.61;89.62;99153.56;1761903;81;20270;-85
2021/05/22 04:16:11;;;;;;;;;;;;;;;8.65;89.01;99161.26;1751035;80;20419;-89
2021/05/22 04:18:37;;;;;;;;;;;;;;;8.70;89.01;99162.50;1766161;80;20204;-85
2021/05/22 04:21:04;;;;;;;;;;;;;;;8.68;89.05;99156.04;1752462;80;20187;-86
2021/05/22 04:23:30;;;;;;;;;;;;;;;8.70;88.56;99154.73;1766397;80;20231;-88
2021/05/22 04:25:56;;;;;;;;;;;;;;;8.74;88.15;99155.09;1770754;80;20201;-83
2021/05/22 04:28:23;;;;;;;;;;;;;;;8.81;88.96;99159.27;1737863;82;20209;-86
2021/05/22 04:30:49;;;;;;;;;;;;;;;8.89;88.64;99158.72;1756489;80;20173;-86
2021/05/22 04:33:15;;;;;;;;;;;;;;;8.99;88.45;99162.44;1778585;79;20179;-89
2021/05/22 04:35:42;;;;;;;;;;;;;;;9.08;88.38;99164.88;1784824;79;20525;-87
2021/05/22 04:38:09;;;;;;;;;;;;;;;9.17;88.48;99162.09;1770494;81;20243;-88
2021/05/22 04:40:35;;;;;;;;;;;;;;;9.26;87.81;99167.58;1766289;81;20125;-86
2021/05/22 04:43:02;;;;;;;;;;;;;;;9.35;87.52;99169.98;1763921;81;20214;-86
2021/05/22 04:45:28;;;;;;;;;;;;;;;9.45;86.96;99178.44;1756691;80;20162;-87
2021/05/22 04:47:55;;;;;;;;;;;;;;;9.54;86.50;99187.36;1769675;80;20158;-87
2021/05/22 04:50:21;;;;;;;;;;;;;;;9.55;84.76;99188.64;1770554;80;20233;-85
2021/05/22 04:52:47;;;;;;;;;;;;;;;9.61;85.19;99187.67;1756393;80;20199;-88
2021/05/22 04:55:14;;;;;;;;;;;;;;;9.73;84.99;99195.66;1776061;80;20568;-88
2021/05/22 04:57:40;;;;;;;;;;;;;;;9.82;84.07;99192.86;1768566;80;20191;-86
2021/05/22 05:00:07;;;;;;;;;;;;;;;9.88;83.08;99189.28;1768238;80;20167;-89
2021/05/22 05:02:34;;;;;;;;;;;;;;;9.85;83.10;99185.47;1773990;80;20862;-89
2021/05/22 05:05:00;;;;;;;;;;;;;;;9.83;83.88;99171.21;1763202;80;20183;-86
2021/05/22 05:07:26;;;;;;;;;;;;;;;10.11;82.76;99186.20;1778814;80;20167;-84
2021/05/22 05:09:52;;;;;;;;;;;;;;;10.16;82.14;99192.14;1769401;80;20195;-87
2021/05/22 05:12:19;;;;;;;;;;;;;;;10.23;83.01;99185.09;1765959;80;21035;-87
2021/05/22 05:14:45;;;;;;;;;;;;;;;10.20;82.03;99173.45;1770078;80;20250;-85
2021/05/22 05:17:11;;;;;;;;;;;;;;;10.41;82.89;99196.84;1781989;80;20210;-88
2021/05/22 05:19:38;;;;;;;;;;;;;;;10.55;83.60;99198.67;1775122;80;20555;-86
2021/05/22 05:22:04;;;;;;;;;;;;;;;10.70;83.31;99197.02;1763275;80;20185;-88
2021/05/22 05:24:30;;;;;;;;;;;;;;;10.79;82.25;99198.98;1783867;80;20192;-85
2021/05/22 05:26:56;;;;;;;;;;;;;;;10.90;81.91;99200.86;1781868;80;20194;-87
2021/05/22 05:29:23;;;;;;;;;;;;;;;11.01;82.01;99198.85;1774189;80;20514;-86
2021/05/22 05:31:50;;;;;;;;;;;;;;;11.11;81.16;99198.17;1788304;80;20150;-85
2021/05/22 05:34:16;;;;;;;;;;;;;;;11.11;80.26;99199.48;1788440;79;20147;-85
2021/05/22 05:36:42;;;;;;;;;;;;;;;11.17;80.38;99201.92;1766807;79;20171;-87
2021/05/22 05:39:10;;;;;;;;;;;;;;;11.29;81.47;99200.75;1724703;82;20196;-86
2021/05/22 05:41:37;;;;;;;;;;;;;;;11.48;81.51;99204.58;1729234;81;20156;-87
2021/05/22 05:44:04;;;;;;;;;;;;;;;11.64;81.50;99202.41;1729682;83;20128;-87
2021/05/22 05:46:30;;;;;;;;;;;;;;;11.78;80.42;99208.53;1728942;82;20120;-87
2021/05/22 05:48:56;;;;;;;;;;;;;;;11.89;79.81;99199.13;1710286;80;20182;-88
2021/05/22 05:51:22;;;;;;;;;;;;;;;11.94;79.76;99204.62;1707782;83;20163;-84
2021/05/22 05:53:49;;;;;;;;;;;;;;;12.06;79.03;99211.23;1719222;83;20532;-86
2021/05/22 05:56:15;;;;;;;;;;;;;;;12.22;79.32;99202.50;1713779;83;20191;-89
2021/05/22 05:58:41;;;;;;;;;;;;;;;12.30;77.88;99204.88;1714318;83;20186;-86
2021/05/22 06:01:08;;;;;;;;;;;;;;;12.45;78.18;99204.84;1719381;83;20190;-87
2021/05/22 06:03:34;;;;;;;;;;;;;;;12.59;76.96;99205.72;1723329;83;20102;-86
2021/05/22 06:06:01;;;;;;;;;;;;;;;12.74;76.74;99201.33;1723853;83;20121;-87
2021/05/22 06:08:27;;;;;;;;;;;;;;;12.77;75.55;99201.22;1725146;82;20385;-87
2021/05/22 06:10:54;;;;;;;;;;;;;;;12.83;74.95;99206.27;1714927;83;20150;-86
2021/05/22 06:13:30;;;;;;;;;;;;;;;12.67;73.23;99212.42;1722342;81;20224;-87
2021/05/22 06:16:20;;;;;;;;;;;;;;;12.69;74.31;99210.62;1711307;82;20114;-87
2021/05/22 06:18:35;;;;;;;;;;;;;;;12.82;75.18;99218.89;1693371;83;20167;-87
2021/05/22 06:21:03;;;;;;;;;;;;;;;12.89;75.54;99217.80;1696356;83;20182;-87
2021/05/22 06:23:30;;;;;;;;;;;;;;;12.82;73.64;99222.80;1705653;83;20135;-87
2021/05/22 06:25:58;;;;;;;;;;;;;;;12.82;73.89;99209.76;1718760;81;20214;-87
2021/05/22 06:28:25;;;;;;;;;;;;;;;12.85;72.46;99216.20;1725059;81;20159;-87
2021/05/22 06:30:51;;;;;;;;;;;;;;;12.90;73.51;99213.42;1723545;83;20144;-87
2021/05/22 06:33:18;;;;;;;;;;;;;;;13.03;72.84;99209.95;1696371;84;20150;-87
2021/05/22 06:35:44;;;;;;;;;;;;;;;13.20;73.38;99211.55;1722126;83;20133;-87
2021/05/22 06:38:10;;;;;;;;;;;;;;;13.25;71.65;99206.16;1725294;81;20163;-87
2021/05/22 06:40:37;;;;;;;;;;;;;;;13.42;71.04;99210.38;1736386;82;20147;-87
2021/05/22 06:43:03;;;;;;;;;;;;;;;13.61;71.20;99209.73;1723714;83;20164;-87
2021/05/22 06:45:39;;;;;;;;;;;;;;;13.84;72.09;99206.30;1728903;83;20179;-88
2021/05/22 06:47:58;;;;;;;;;;;;;;;14.05;70.62;99203.36;1736190;80;20167;-87
2021/05/22 06:50:24;;;;;;;;;;;;;;;14.23;68.05;99194.80;1747344;82;20174;-88
2021/05/22 06:52:50;;;;;;;;;;;;;;;14.41;68.50;99197.16;1751308;81;20144;-88
2021/05/22 06:55:16;;;;;;;;;;;;;;;14.50;69.50;99190.27;1733896;79;20096;-87
2021/05/22 06:57:43;;;;;;;;;;;;;;;14.58;66.45;99190.44;1742426;83;20181;-86
2021/05/22 07:00:29;;;;;;;;;;;;;;;14.76;66.76;99186.22;1729495;82;20169;-87
2021/05/22 07:02:55;;;;;;;;;;;;;;;14.89;63.78;99183.05;1695967;84;20123;-86
2021/05/22 07:05:21;;;;;;;;;;;;;;;15.05;64.61;99187.66;1695756;85;20158;-87
2021/05/22 07:07:48;;;;;;;;;;;;;;;15.15;64.59;99186.34;1695534;85;20182;-87
2021/05/22 07:10:14;;;;;;;;;;;;;;;15.30;66.54;99187.00;1695452;85;20231;-87
2021/05/22 07:12:40;;;;;;;;;;;;;;;15.40;62.11;99189.20;1696066;84;20106;-86
2021/05/22 07:15:09;;;;;;;;;;;;;;;15.57;62.81;99174.92;1695214;84;20186;-86
2021/05/22 07:17:35;;;;;;;;;;;;;;;15.70;60.93;99174.77;1695305;85;20187;-87
2021/05/22 07:20:04;;;;;;;;;;;;;;;15.79;62.03;99171.38;1695319;84;20170;-86
2021/05/22 07:22:30;;;;;;;;;;;;;;;15.89;61.35;99166.09;1695643;85;20111;-87
2021/05/22 07:24:56;;;;;;;;;;;;;;;16.04;61.62;99159.31;1695632;85;20170;-87
2021/05/22 07:27:23;;;;;;;;;;;;;;;16.20;61.90;99157.67;1694965;84;20170;-86
2021/05/22 07:29:51;;;;;;;;;;;;;;;16.42;64.16;99161.43;1695076;85;20230;-86
2021/05/22 07:32:18;;;;;;;;;;;;;;;16.34;59.42;99166.20;1693905;85;20201;-86
2021/05/22 07:34:44;;;;;;;;;;;;;;;16.57;59.11;99164.23;1694256;84;20541;-85
2021/05/22 07:37:11;;;;;;;;;;;;;;;16.72;61.34;99160.86;1692693;85;20250;-83
2021/05/22 07:39:37;;;;;;;;;;;;;;;16.75;58.44;99158.55;1695042;84;20193;-86
2021/05/22 07:42:03;;;;;;;;;;;;;;;16.93;58.56;99159.44;1694821;85;20360;-86
2021/05/22 07:44:30;;;;;;;;;;;;;;;17.02;58.82;99162.45;1694475;83;20504;-86
2021/05/22 07:46:56;;;;;;;;;;;;;;;17.15;59.58;99165.77;1694491;84;20801;-86
2021/05/22 07:49:22;;;;;;;;;;;;;;;17.00;57.80;99167.41;1695074;85;20198;-87
2021/05/22 07:51:48;;;;;;;;;;;;;;;17.22;58.62;99161.44;1692023;85;20186;-85
2021/05/22 07:54:15;;;;;;;;;;;;;;;17.36;58.82;99164.66;1691269;85;20193;-84
2021/05/22 07:56:41;;;;;;;;;;;;;;;17.37;58.29;99162.44;1694603;84;20162;-87
2021/05/22 07:59:07;;;;;;;;;;;;;;;17.53;60.98;99157.23;1695957;85;20170;-86
2021/05/22 08:01:34;;;;;;;;;;;;;;;17.50;58.75;99151.64;1694444;83;20200;-87
2021/05/22 08:04:01;;;;;;;;;;;;;;;17.62;60.93;99150.15;1693911;85;20236;-86
2021/05/22 08:06:27;;;;;;;;;;;;;;;17.55;60.45;99155.81;1693959;84;20193;-85
2021/05/22 08:08:53;;;;;;;;;;;;;;;17.58;60.05;99153.88;1694200;84;20206;-87
2021/05/22 08:11:20;;;;;;;;;;;;;;;17.67;60.14;99151.24;1693945;85;20115;-86
2021/05/22 08:13:46;;;;;;;;;;;;;;;17.73;59.70;99146.13;1708929;84;20199;-85
2021/05/22 08:16:12;;;;;;;;;;;;;;;17.87;58.64;99141.84;1709733;84;20447;-86
2021/05/22 08:18:39;;;;;;;;;;;;;;;18.03;58.09;99150.22;1695779;84;20183;-87
2021/05/22 08:21:06;;;;;;;;;;;;;;;18.19;58.09;99146.27;1701859;84;20155;-87
2021/05/22 08:23:32;;;;;;;;;;;;;;;18.39;58.72;99146.47;1709736;83;20136;-87
2021/05/22 08:25:59;;;;;;;;;;;;;;;18.53;58.82;99140.42;1709612;84;20168;-86
2021/05/22 08:28:27;;;;;;;;;;;;;;;18.66;57.07;99142.71;1698836;84;20112;-87
2021/05/22 08:30:53;;;;;;;;;;;;;;;18.72;56.89;99145.47;1694500;85;20099;-87
2021/05/22 08:33:20;;;;;;;;;;;;;;;18.86;56.24;99141.14;1694283;84;20190;-86
2021/05/22 08:35:47;;;;;;;;;;;;;;;19.06;56.13;99145.23;1693894;84;20221;-87
2021/05/22 08:38:13;;;;;;;;;;;;;;;19.16;56.20;99149.94;1693746;85;20171;-87
2021/05/22 08:40:39;;;;;;;;;;;;;;;19.30;56.98;99145.16;1701572;84;20123;-85
2021/05/22 08:43:05;;;;;;;;;;;;;;;19.44;54.95;99151.31;1694204;85;20166;-87
2021/05/22 08:45:32;;;;;;;;;;;;;;;19.34;54.20;99148.86;1689083;84;20202;-87
2021/05/22 08:47:59;;;;;;;;;;;;;;;19.44;56.64;99149.99;1693753;85;20155;-86
2021/05/22 08:50:25;;;;;;;;;;;;;;;19.52;58.20;99146.89;1694001;85;20182;-87
2021/05/22 08:52:54;;;;;;;;;;;;;;;19.42;56.17;99145.77;1693787;84;20143;-86
2021/05/22 08:55:21;;;;;;;;;;;;;;;19.56;56.61;99140.97;1692962;85;20207;-87
2021/05/22 08:57:48;;;;;;;;;;;;;;;19.49;54.45;99136.52;1665135;85;20208;-86
2021/05/22 09:00:16;;;;;;;;;;;;;;;19.58;54.30;99137.77;1692346;84;20158;-86
2021/05/22 09:02:44;;;;;;;;;;;;;;;19.74;53.25;99133.73;1693942;84;20179;-87
2021/05/22 09:05:18;;;;;;;;;;;;;;;19.86;57.22;99125.89;1693969;84;20186;-87
2021/05/22 09:07:50;;;;;;;;;;;;;;;19.84;57.27;99126.46;1694234;84;20119;-86
2021/05/22 09:10:20;;;;;;;;;;;;;;;19.72;51.82;99131.19;1694322;84;20206;-86
2021/05/22 09:12:49;;;;;;;;;;;;;;;19.75;51.03;99127.02;1693597;85;20225;-87
2021/05/22 09:15:25;;;;;;;;;;;;;;;19.79;54.07;99129.00;1693988;84;20227;-86
2021/05/22 09:17:57;;;;;;;;;;;;;;;19.66;51.70;99136.34;1693440;85;20187;-87
2021/05/22 09:20:26;;;;;;;;;;;;;;;19.52;50.99;99124.92;1694292;84;20222;-86
2021/05/22 09:22:59;;;;;;;;;;;;;;;19.71;52.25;99123.33;1694413;84;20663;-87
2021/05/22 09:25:26;;;;;;;;;;;;;;;19.76;53.07;99131.84;1694314;84;20182;-87
2021/05/22 09:27:53;;;;;;;;;;;;;;;19.66;51.02;99133.70;1694104;84;20170;-86
2021/05/22 09:30:21;;;;;;;;;;;;;;;19.75;50.50;99119.59;1678125;85;20198;-86
2021/05/22 09:32:47;;;;;;;;;;;;;;;19.90;51.70;99122.59;1693713;84;20588;-87
2021/05/22 09:35:15;;;;;;;;;;;;;;;19.82;49.67;99123.07;1693766;85;20205;-86
2021/05/22 09:37:50;;;;;;;;;;;;;;;20.05;51.78;99123.39;1678497;86;20211;-87
2021/05/22 09:40:20;;;;;;;;;;;;;;;20.16;51.59;99122.25;1676602;85;20210;-85
2021/05/22 09:42:47;;;;;;;;;;;;;;;20.18;49.79;99118.20;1694225;85;20183;-86
2021/05/22 09:45:24;;;;;;;;;;;;;;;20.26;50.27;99118.55;1694083;85;20194;-87
2021/05/22 09:47:51;;;;;;;;;;;;;;;20.18;48.47;99112.92;1692889;84;20138;-85
2021/05/22 09:50:32;;;;;;;;;;;;;;;20.29;46.76;99114.85;1684245;84;20222;-85
2021/05/22 09:53:00;;;;;;;;;;;;;;;20.36;47.66;99105.60;1678260;86;20135;-86
2021/05/22 09:55:27;;;;;;;;;;;;;;;20.66;49.56;99101.44;1682603;85;20199;-87
2021/05/22 09:57:56;;;;;;;;;;;;;;;20.89;50.02;99101.67;1688825;84;20178;-86
2021/05/22 10:00:24;;;;;;;;;;;;;;;21.13;50.05;99095.20;1677834;85;20189;-87
2021/05/22 10:02:55;;;;;;;;;;;;;;;21.13;42.94;99089.45;1695222;82;20622;-86
2021/05/22 10:05:33;;;;;;;;;;;;;;;21.36;43.67;99094.45;1687544;84;20154;-87
2021/05/22 10:08:02;;;;;;;;;;;;;;;21.50;47.25;99084.27;1693396;85;20200;-87
2021/05/22 10:10:45;;;;;;;;;;;;;;;21.47;44.48;99084.50;1693752;85;20193;-86
2021/05/22 10:13:16;;;;;;;;;;;;;;;21.65;46.62;99081.87;1693619;85;20180;-87
2021/05/22 10:15:43;;;;;;;;;;;;;;;21.68;43.07;99073.34;1693858;85;20158;-87
2021/05/22 10:18:10;;;;;;;;;;;;;;;21.69;42.61;99071.08;1674991;85;20174;-86
2021/05/22 10:20:37;;;;;;;;;;;;;;;21.78;45.21;99065.95;1669161;85;20174;-86
2021/05/22 10:23:05;;;;;;;;;;;;;;;21.83;42.36;99066.47;1672695;86;20161;-87
2021/05/22 10:25:32;;;;;;;;;;;;;;;21.89;44.46;99057.73;1678125;85;20194;-86
2021/05/22 10:27:59;;;;;;;;;;;;;;;21.98;42.75;99051.75;1693755;85;20162;-87
2021/05/22 10:30:25;;;;;;;;;;;;;;;22.04;44.53;99042.91;1693516;85;20159;-87
2021/05/22 10:33:05;;;;;;;;;;;;;;;22.00;41.43;99041.44;1686766;84;20193;-87
2021/05/22 10:35:40;;;;;;;;;;;;;;;21.99;42.99;99029.15;1691103;85;20182;-87
2021/05/22 10:38:06;;;;;;;;;;;;;;;22.03;44.68;99024.00;1683464;84;20190;-87
2021/05/22 10:40:47;;;;;;;;;;;;;;;22.20;46.30;99023.22;1675397;85;20198;-87
2021/05/22 10:43:14;;;;;;;;;;;;;;;22.37;46.05;99020.69;1676965;85;20137;-87
2021/05/22 10:45:42;;;;;;;;;;;;;;;22.49;45.82;99011.80;1687378;85;20170;-87
2021/05/22 10:48:21;;;;;;;;;;;;;;;22.56;45.76;99005.09;1687135;84;20206;-86
2021/05/22 10:50:48;;;;;;;;;;;;;;;22.72;45.97;99000.79;1679727;85;20193;-87
2021/05/22 10:53:25;;;;;;;;;;;;;;;22.83;45.60;98996.81;1693050;84;20178;-87
2021/05/22 10:56:15;;;;;;;;;;;;;;;22.96;45.17;98994.07;1659836;84;20157;-87
2021/05/22 10:59:09;;;;;;;;;;;;;;;23.01;42.88;98989.23;1675582;85;20188;-87
2021/05/22 11:01:36;;;;;;;;;;;;;;;23.07;44.11;98981.31;1693359;84;20241;-86
2021/05/22 11:04:14;;;;;;;;;;;;;;;22.97;41.73;98968.39;1670119;85;20214;-87
2021/05/22 11:07:01;;;;;;;;;;;;;;;23.11;42.91;98970.83;1661007;86;20173;-86
2021/05/22 11:09:32;;;;;;;;;;;;;;;23.30;41.17;98962.27;1684177;85;20170;-87
2021/05/22 11:12:01;;;;;;;;;;;;;;;23.36;36.60;98956.96;1688958;85;20164;-87
2021/05/22 11:14:47;;;;;;;;;;;;;;;23.52;38.07;98963.20;1688866;85;20190;-87
2021/05/22 11:17:24;;;;;;;;;;;;;;;23.71;39.68;98954.08;1688917;85;20210;-87
2021/05/22 11:20:04;;;;;;;;;;;;;;;23.79;36.42;98958.80;1688832;85;20186;-87
2021/05/22 11:22:31;;;;;;;;;;;;;;;23.73;35.43;98951.31;1688663;85;20183;-86
2021/05/22 11:25:06;;;;;;;;;;;;;;;23.78;37.31;98934.07;1689226;85;20206;-86
2021/05/22 11:27:51;;;;;;;;;;;;;;;23.95;34.19;98946.43;1673542;85;20226;-87
2021/05/22 11:30:23;;;;;;;;;;;;;;;24.04;35.29;98947.50;1673630;85;20205;-87
2021/05/22 11:32:58;;;;;;;;;;;;;;;24.16;35.07;98947.80;1682907;85;20226;-86
2021/05/22 11:35:29;;;;;;;;;;;;;;;24.24;34.43;98941.84;1688653;85;20219;-86
2021/05/22 11:37:58;;;;;;;;;;;;;;;24.22;35.09;98939.31;1689166;85;20127;-87
2021/05/22 11:40:44;;;;;;;;;;;;;;;24.30;32.33;98940.83;1670374;85;20564;-85
2021/05/22 11:43:20;;;;;;;;;;;;;;;24.37;31.18;98936.69;1686064;85;20267;-86
2021/05/22 11:46:02;;;;;;;;;;;;;;;24.59;34.20;98929.09;1689861;85;20223;-87
2021/05/22 11:48:40;;;;;;;;;;;;;;;24.70;31.51;98931.30;1697439;84;20177;-87
2021/05/22 11:51:19;;;;;;;;;;;;;;;24.89;32.77;98933.19;1689730;84;20170;-87
2021/05/22 11:53:57;;;;;;;;;;;;;;;25.09;31.15;98924.33;1689103;85;20209;-87
2021/05/22 11:56:24;;;;;;;;;;;;;;;25.40;31.18;98921.63;1693700;84;20169;-87
2021/05/22 11:58:53;;;;;;;;;;;;;;;25.51;30.31;98923.34;1703677;83;20165;-88
2021/05/22 12:01:26;;;;;;;;;;;;;;;25.55;29.59;98916.77;1696921;84;20198;-86
2021/05/22 12:03:55;;;;;;;;;;;;;;;25.66;29.76;98917.95;1674685;84;20225;-87
2021/05/22 12:06:35;;;;;;;;;;;;;;;26.05;28.56;98911.33;1679769;85;20248;-86
2021/05/22 12:09:12;;;;;;;;;;;;;;;26.29;27.74;98911.37;1673242;85;20220;-86
2021/05/22 12:11:44;;;;;;;;;;;;;;;26.64;27.44;98909.42;1668784;86;20188;-86
2021/05/22 12:14:11;;;;;;;;;;;;;;;26.90;28.29;98900.73;1674498;86;20167;-87
2021/05/22 12:16:38;;;;;;;;;;;;;;;27.22;27.71;98912.78;1693396;84;20223;-87
2021/05/22 12:19:17;;;;;;;;;;;;;;;27.51;26.78;98905.46;1685842;84;20201;-87
2021/05/22 12:21:51;;;;;;;;;;;;;;;27.64;27.06;98906.44;1669190;86;20197;-85
2021/05/22 12:24:20;;;;;;;;;;;;;;;27.70;25.40;98904.49;1694428;85;20186;-86
2021/05/22 12:26:49;;;;;;;;;;;;;;;28.12;26.82;98897.19;1675345;84;20098;-87
2021/05/22 12:29:15;;;;;;;;;;;;;;;28.04;24.37;98899.80;1669406;82;20165;-88
2021/05/22 12:31:46;;;;;;;;;;;;;;;27.92;24.79;98901.88;1670172;83;20165;-88
2021/05/22 12:34:13;;;;;;;;;;;;;;;28.42;24.68;98888.87;1677432;84;20193;-86
2021/05/22 12:37:00;;;;;;;;;;;;;;;29.15;26.39;98887.94;1693335;80;20124;-89
2021/05/22 12:39:41;;;;;;;;;;;;;;;29.72;26.32;98889.08;1684440;83;20128;-89
2021/05/22 12:42:22;;;;;;;;;;;;;;;30.03;21.76;98878.53;1710527;80;20151;-87
2021/05/22 12:44:52;;;;;;;;;;;;;;;30.64;26.12;98870.05;1766243;81;20140;-85
2021/05/22 12:47:22;;;;;;;;;;;;;;;30.65;24.76;98877.94;1763824;80;20133;-87
2021/05/22 12:49:56;;;;;;;;;;;;;;;30.48;23.84;98870.94;1784906;80;20141;-90
2021/05/22 12:52:27;;;;;;;;;;;;;;;29.82;22.95;98879.03;1717054;81;20118;-89
2021/05/22 12:54:54;;;;;;;;;;;;;;;29.02;23.25;98874.14;1692745;85;20123;-89
2021/05/22 12:57:27;;;;;;;;;;;;;;;29.84;24.83;98874.34;1692618;85;20127;-88
2021/05/22 12:59:57;;;;;;;;;;;;;;;29.63;23.63;98876.67;1690552;82;20195;-89